Time;durP1;ratioP1;P1;durP2;ratioP2;P2;SDS_P1;SDS_P2;PMS_P1;PMS_P2;Temp;Humidity;BMP_temperature;BMP_pressure;BME280_temperature;BME280_humidity;BME280_pressure;Samples;Min_cycle;Max_cycle;Signal;HPM_P1;HPM_P2
2021/09/23 00:02:15;;;;;;;6.05;3.25;;;;;;;;;;5110958;28;20518;-68
2021/09/23 00:04:42;;;;;;;7.97;3.35;;;;;;;;;;5095425;28;20028;-69
2021/09/23 00:07:08;;;;;;;6.70;3.47;;;;;;;;;;5114290;28;20030;-68
2021/09/23 00:09:34;;;;;;;7.97;4.00;;;;;;;;;;5112352;28;20039;-68
2021/09/23 00:11:59;;;;;;;5.60;3.97;;;;;;;;;;5105127;28;20027;-69
2021/09/23 00:14:25;;;;;;;4.47;3.40;;;;;;;;;;5110765;28;20509;-68
2021/09/23 00:16:52;;;;;;;7.13;3.72;;;;;;;;;;5106270;28;20028;-69
2021/09/23 00:19:18;;;;;;;5.90;3.63;;;;;;;;;;5112854;28;20106;-68
2021/09/23 00:21:44;;;;;;;6.05;3.80;;;;;;;;;;5111980;28;20038;-68
2021/09/23 00:24:10;;;;;;;6.32;3.70;;;;;;;;;;5110559;28;20058;-68
2021/09/23 00:26:36;;;;;;;10.90;3.60;;;;;;;;;;5110735;28;20072;-69
2021/09/23 00:29:04;;;;;;;7.15;3.70;;;;;;;;;;5110347;28;20122;-68
2021/09/23 00:31:33;;;;;;;4.03;3.20;;;;;;;;;;5112014;28;20015;-69
2021/09/23 00:33:59;;;;;;;8.00;3.50;;;;;;;;;;5113274;28;20027;-68
2021/09/23 00:36:25;;;;;;;5.13;3.53;;;;;;;;;;5105263;28;20509;-68
2021/09/23 00:38:51;;;;;;;5.90;3.20;;;;;;;;;;5110607;28;20428;-68
2021/09/23 00:41:17;;;;;;;6.72;3.13;;;;;;;;;;5110748;28;20126;-68
2021/09/23 00:43:43;;;;;;;5.75;3.60;;;;;;;;;;5110322;28;20115;-68
2021/09/23 00:46:09;;;;;;;7.50;3.50;;;;;;;;;;5112267;28;20379;-68
2021/09/23 00:48:36;;;;;;;6.40;3.80;;;;;;;;;;5109659;28;20026;-68
2021/09/23 00:51:02;;;;;;;8.05;3.67;;;;;;;;;;5109800;28;20031;-68
2021/09/23 00:53:28;;;;;;;4.85;3.50;;;;;;;;;;5109858;28;20027;-68
2021/09/23 00:55:57;;;;;;;8.32;3.70;;;;;;;;;;5110609;28;20031;-68
2021/09/23 00:58:24;;;;;;;6.55;3.72;;;;;;;;;;5111935;28;20473;-68
2021/09/23 01:00:50;;;;;;;6.93;3.45;;;;;;;;;;5112042;28;20027;-68
2021/09/23 01:03:16;;;;;;;4.80;3.38;;;;;;;;;;5109873;28;20498;-68
2021/09/23 01:05:42;;;;;;;4.55;3.33;;;;;;;;;;5109837;28;20487;-69
2021/09/23 01:08:08;;;;;;;6.38;3.70;;;;;;;;;;5109648;28;20033;-68
2021/09/23 01:10:34;;;;;;;4.78;3.78;;;;;;;;;;5110653;28;20023;-68
2021/09/23 01:13:01;;;;;;;5.78;3.72;;;;;;;;;;5112934;28;20035;-68
2021/09/23 01:15:27;;;;;;;6.25;3.53;;;;;;;;;;5103846;28;20085;-69
2021/09/23 01:17:53;;;;;;;10.82;3.75;;;;;;;;;;5109723;28;20497;-69
2021/09/23 01:20:19;;;;;;;6.00;3.85;;;;;;;;;;5110205;28;20027;-69
2021/09/23 01:22:46;;;;;;;4.80;3.40;;;;;;;;;;5108856;28;20024;-68
2021/09/23 01:25:16;;;;;;;8.13;5.18;;;;;;;;;;5112173;28;20034;-69
2021/09/23 01:27:42;;;;;;;6.22;3.40;;;;;;;;;;5105914;28;20173;-67
2021/09/23 01:30:08;;;;;;;5.97;3.65;;;;;;;;;;5109466;28;20027;-69
2021/09/23 01:32:34;;;;;;;8.23;4.05;;;;;;;;;;5108637;28;20356;-69
2021/09/23 01:35:00;;;;;;;4.38;3.45;;;;;;;;;;5109578;28;20043;-69
2021/09/23 01:37:26;;;;;;;6.00;3.40;;;;;;;;;;5110777;28;20069;-69
2021/09/23 01:39:52;;;;;;;8.10;4.00;;;;;;;;;;5111132;28;20024;-69
2021/09/23 01:42:18;;;;;;;6.68;4.22;;;;;;;;;;5096268;28;20472;-67
2021/09/23 01:44:44;;;;;;;5.97;3.17;;;;;;;;;;5102407;28;20032;-69
2021/09/23 01:47:10;;;;;;;6.03;3.38;;;;;;;;;;5108803;28;20027;-68
2021/09/23 01:49:36;;;;;;;6.93;3.70;;;;;;;;;;5093706;28;20539;-68
2021/09/23 01:52:03;;;;;;;7.25;3.67;;;;;;;;;;5112779;28;20016;-69
2021/09/23 01:54:28;;;;;;;6.20;3.47;;;;;;;;;;5108501;28;20123;-68
2021/09/23 01:56:54;;;;;;;7.22;3.58;;;;;;;;;;5109110;28;20438;-68
2021/09/23 01:59:24;;;;;;;5.93;3.67;;;;;;;;;;5108651;28;20031;-69
2021/09/23 02:01:50;;;;;;;5.97;3.30;;;;;;;;;;5107247;28;20062;-69
2021/09/23 02:04:16;;;;;;;5.43;3.72;;;;;;;;;;5108356;28;20559;-69
2021/09/23 02:06:42;;;;;;;6.78;4.00;;;;;;;;;;5110079;28;20026;-69
2021/09/23 02:09:08;;;;;;;6.65;3.78;;;;;;;;;;5108668;28;20031;-69
2021/09/23 02:11:34;;;;;;;5.90;3.58;;;;;;;;;;5108749;28;20026;-68
2021/09/23 02:14:00;;;;;;;8.13;3.70;;;;;;;;;;5108759;28;20036;-68
2021/09/23 02:16:26;;;;;;;7.03;3.63;;;;;;;;;;5109045;28;20080;-68
2021/09/23 02:18:52;;;;;;;6.95;3.75;;;;;;;;;;5110305;28;20027;-69
2021/09/23 02:21:18;;;;;;;5.10;3.67;;;;;;;;;;5108549;28;20474;-68
2021/09/23 02:23:44;;;;;;;7.70;3.70;;;;;;;;;;5108756;28;20031;-69
2021/09/23 02:26:10;;;;;;;7.35;3.88;;;;;;;;;;5108660;28;20020;-68
2021/09/23 02:28:38;;;;;;;6.07;4.20;;;;;;;;;;5105097;28;20092;-68
2021/09/23 02:31:05;;;;;;;5.97;3.80;;;;;;;;;;5107236;28;20015;-68
2021/09/23 02:33:31;;;;;;;10.88;3.85;;;;;;;;;;5102830;28;20027;-69
2021/09/23 02:35:57;;;;;;;5.15;3.67;;;;;;;;;;5108534;28;20114;-68
2021/09/23 02:38:23;;;;;;;8.90;4.15;;;;;;;;;;5109712;28;20542;-68
2021/09/23 02:40:49;;;;;;;6.45;4.05;;;;;;;;;;5108048;28;20102;-69
2021/09/23 02:43:15;;;;;;;7.53;4.30;;;;;;;;;;5110861;28;20406;-68
2021/09/23 02:45:41;;;;;;;7.13;4.13;;;;;;;;;;5110623;28;20077;-68
2021/09/23 02:48:07;;;;;;;8.27;4.00;;;;;;;;;;5107892;28;20023;-68
2021/09/23 02:50:33;;;;;;;6.50;3.70;;;;;;;;;;5107860;28;20028;-68
2021/09/23 02:52:59;;;;;;;7.22;4.10;;;;;;;;;;5107239;28;20061;-69
2021/09/23 02:55:25;;;;;;;7.70;4.05;;;;;;;;;;5110220;28;20421;-68
2021/09/23 02:57:54;;;;;;;9.20;4.40;;;;;;;;;;5108185;28;20103;-68
2021/09/23 03:00:20;;;;;;;8.65;4.18;;;;;;;;;;5108159;28;20035;-69
2021/09/23 03:02:46;;;;;;;7.80;4.40;;;;;;;;;;5107893;28;20041;-68
2021/09/23 03:05:12;;;;;;;5.95;4.30;;;;;;;;;;5108164;28;20065;-68
2021/09/23 03:07:38;;;;;;;6.82;4.10;;;;;;;;;;5108221;28;20042;-68
2021/09/23 03:10:05;;;;;;;5.30;4.15;;;;;;;;;;5107449;28;20031;-68
2021/09/23 03:12:31;;;;;;;8.60;4.30;;;;;;;;;;5108716;28;20042;-68
2021/09/23 03:14:57;;;;;;;5.13;3.92;;;;;;;;;;5111575;28;20040;-68
2021/09/23 03:17:23;;;;;;;9.93;4.00;;;;;;;;;;5112008;28;20023;-68
2021/09/23 03:19:49;;;;;;;11.02;3.90;;;;;;;;;;5104708;28;20114;-68
2021/09/23 03:22:18;;;;;;;6.82;3.95;;;;;;;;;;5108415;28;20065;-68
2021/09/23 03:24:45;;;;;;;7.97;3.85;;;;;;;;;;5107705;28;20023;-68
2021/09/23 03:27:11;;;;;;;6.40;4.75;;;;;;;;;;5108142;28;20046;-68
2021/09/23 03:29:37;;;;;;;6.88;4.13;;;;;;;;;;5107643;28;20027;-68
2021/09/23 03:32:04;;;;;;;9.82;4.57;;;;;;;;;;5106476;28;20073;-69
2021/09/23 03:34:30;;;;;;;6.93;4.05;;;;;;;;;;5106929;28;20027;-68
2021/09/23 03:36:56;;;;;;;7.88;4.20;;;;;;;;;;5101248;28;20383;-68
2021/09/23 03:39:22;;;;;;;6.53;4.55;;;;;;;;;;5111782;28;20031;-69
2021/09/23 03:41:48;;;;;;;9.80;4.63;;;;;;;;;;5111315;28;20119;-71
2021/09/23 03:44:14;;;;;;;6.38;4.43;;;;;;;;;;5111435;28;20028;-68
2021/09/23 03:46:40;;;;;;;10.85;4.60;;;;;;;;;;5111907;28;20111;-68
2021/09/23 03:49:06;;;;;;;7.78;4.25;;;;;;;;;;5111127;28;20439;-68
2021/09/23 03:51:32;;;;;;;7.63;4.20;;;;;;;;;;5111281;28;20036;-68
2021/09/23 03:53:58;;;;;;;7.75;4.60;;;;;;;;;;5111306;28;20070;-69
2021/09/23 03:56:24;;;;;;;6.90;4.50;;;;;;;;;;5105254;28;20056;-69
2021/09/23 03:58:50;;;;;;;8.82;5.72;;;;;;;;;;5110154;28;20036;-68
2021/09/23 04:01:16;;;;;;;7.90;4.90;;;;;;;;;;5112923;28;20072;-68
2021/09/23 04:03:42;;;;;;;12.23;5.57;;;;;;;;;;5112299;28;20062;-68
2021/09/23 04:06:08;;;;;;;8.52;4.95;;;;;;;;;;5110686;28;20067;-68
2021/09/23 04:08:34;;;;;;;9.63;5.10;;;;;;;;;;5105983;28;20453;-69
2021/09/23 04:11:00;;;;;;;8.60;5.28;;;;;;;;;;5111012;28;20517;-68
2021/09/23 04:13:26;;;;;;;8.98;4.72;;;;;;;;;;5112188;28;20020;-68
2021/09/23 04:15:52;;;;;;;8.73;4.88;;;;;;;;;;5112880;28;20493;-68
2021/09/23 04:18:18;;;;;;;8.95;5.10;;;;;;;;;;5109541;28;20480;-68
2021/09/23 04:20:45;;;;;;;8.80;5.35;;;;;;;;;;5110829;28;20040;-68
2021/09/23 04:23:11;;;;;;;8.82;5.13;;;;;;;;;;5111029;28;20470;-69
2021/09/23 04:25:37;;;;;;;8.00;4.78;;;;;;;;;;5110291;28;20031;-68
2021/09/23 04:28:03;;;;;;;6.30;4.65;;;;;;;;;;5113580;28;20057;-68
2021/09/23 04:30:29;;;;;;;6.80;4.80;;;;;;;;;;5110860;28;20031;-69
2021/09/23 04:32:55;;;;;;;8.18;5.03;;;;;;;;;;5110464;28;20566;-68
2021/09/23 04:35:21;;;;;;;8.50;4.78;;;;;;;;;;5110555;28;20380;-68
2021/09/23 04:37:47;;;;;;;7.40;4.70;;;;;;;;;;5110154;28;20471;-68
2021/09/23 04:40:13;;;;;;;8.82;4.88;;;;;;;;;;5113237;28;20077;-68
2021/09/23 04:42:41;;;;;;;9.45;5.05;;;;;;;;;;5111410;28;20032;-68
2021/09/23 04:45:08;;;;;;;8.40;5.15;;;;;;;;;;5110467;28;20467;-68
2021/09/23 04:47:34;;;;;;;7.22;4.55;;;;;;;;;;5108902;28;20114;-68
2021/09/23 04:50:00;;;;;;;6.93;4.90;;;;;;;;;;5110128;28;20063;-69
2021/09/23 04:52:25;;;;;;;8.35;5.97;;;;;;;;;;5110689;28;20051;-72
2021/09/23 04:54:51;;;;;;;7.45;5.45;;;;;;;;;;5111708;28;20134;-72
2021/09/23 04:57:17;;;;;;;6.97;5.40;;;;;;;;;;5103800;28;20035;-73
2021/09/23 04:59:43;;;;;;;12.60;5.55;;;;;;;;;;5110006;28;20072;-72
2021/09/23 05:02:09;;;;;;;8.75;5.47;;;;;;;;;;5110145;28;20027;-72
2021/09/23 05:04:35;;;;;;;8.75;5.82;;;;;;;;;;5110544;28;20106;-72
2021/09/23 05:07:01;;;;;;;11.07;6.15;;;;;;;;;;5113110;28;20026;-72
2021/09/23 05:09:30;;;;;;;8.18;5.68;;;;;;;;;;5104090;28;20024;-72
2021/09/23 05:11:56;;;;;;;8.13;5.60;;;;;;;;;;5109974;28;20123;-72
2021/09/23 05:14:22;;;;;;;9.57;5.78;;;;;;;;;;5108900;28;20036;-66
2021/09/23 05:16:48;;;;;;;10.07;5.75;;;;;;;;;;5109934;28;20146;-67
2021/09/23 05:19:14;;;;;;;7.43;5.63;;;;;;;;;;5112820;28;20032;-67
2021/09/23 05:21:42;;;;;;;11.75;6.18;;;;;;;;;;5112040;28;20065;-67
2021/09/23 05:24:09;;;;;;;7.63;6.00;;;;;;;;;;5108789;28;20047;-67
2021/09/23 05:26:35;;;;;;;8.93;6.03;;;;;;;;;;5109517;28;20079;-67
2021/09/23 05:29:01;;;;;;;7.88;6.35;;;;;;;;;;5108029;28;20051;-67
2021/09/23 05:31:27;;;;;;;15.50;6.28;;;;;;;;;;5111607;28;20092;-67
2021/09/23 05:33:54;;;;;;;11.43;6.80;;;;;;;;;;5111576;28;20114;-67
2021/09/23 05:36:20;;;;;;;12.52;5.80;;;;;;;;;;5108106;28;20028;-67
2021/09/23 05:38:46;;;;;;;9.95;5.75;;;;;;;;;;5105288;28;20039;-67
2021/09/23 05:41:12;;;;;;;9.32;5.45;;;;;;;;;;5099641;28;20028;-67
2021/09/23 05:43:39;;;;;;;9.48;5.80;;;;;;;;;;5103585;28;20057;-67
2021/09/23 05:46:05;;;;;;;9.85;6.03;;;;;;;;;;5102796;28;20475;-67
2021/09/23 05:48:31;;;;;;;10.43;5.75;;;;;;;;;;5101215;28;20024;-66
2021/09/23 05:50:57;;;;;;;10.55;6.13;;;;;;;;;;5101676;28;20560;-65
2021/09/23 05:53:23;;;;;;;7.95;5.80;;;;;;;;;;5101735;28;20042;-65
2021/09/23 05:55:49;;;;;;;7.65;5.75;;;;;;;;;;5103881;28;20043;-66
2021/09/23 05:58:15;;;;;;;10.57;5.57;;;;;;;;;;5099450;28;20453;-67
2021/09/23 06:00:41;;;;;;;9.00;5.35;;;;;;;;;;5101236;28;20023;-67
2021/09/23 06:03:07;;;;;;;11.27;5.53;;;;;;;;;;5102148;28;20020;-66
2021/09/23 06:05:33;;;;;;;10.23;5.22;;;;;;;;;;5103449;28;20034;-66
2021/09/23 06:07:59;;;;;;;9.35;5.70;;;;;;;;;;5102031;28;20210;-66
2021/09/23 06:10:25;;;;;;;9.88;5.45;;;;;;;;;;5102290;28;20055;-66
2021/09/23 06:12:51;;;;;;;10.43;5.93;;;;;;;;;;5101521;28;20020;-66
2021/09/23 06:15:17;;;;;;;8.15;5.45;;;;;;;;;;5102209;28;20042;-66
2021/09/23 06:17:43;;;;;;;8.18;5.80;;;;;;;;;;5102326;28;20028;-66
2021/09/23 06:20:10;;;;;;;5.65;4.82;;;;;;;;;;5101717;28;20379;-66
2021/09/23 06:22:36;;;;;;;8.38;5.22;;;;;;;;;;5102566;28;20068;-66
2021/09/23 06:25:02;;;;;;;9.18;5.00;;;;;;;;;;5101817;28;20050;-66
2021/09/23 06:27:28;;;;;;;6.75;5.00;;;;;;;;;;5101152;28;20085;-66
2021/09/23 06:29:54;;;;;;;10.10;4.82;;;;;;;;;;5101542;28;20085;-66
2021/09/23 06:32:20;;;;;;;6.45;4.90;;;;;;;;;;5101101;28;20020;-66
2021/09/23 06:34:46;;;;;;;10.07;5.45;;;;;;;;;;5103100;28;20212;-66
2021/09/23 06:37:13;;;;;;;10.80;5.18;;;;;;;;;;5098354;28;20016;-66
2021/09/23 06:39:40;;;;;;;10.15;5.43;;;;;;;;;;5103952;28;20072;-66
2021/09/23 06:42:06;;;;;;;7.75;5.18;;;;;;;;;;5100210;28;20272;-66
2021/09/23 06:44:33;;;;;;;8.10;4.80;;;;;;;;;;5105522;28;20027;-66
2021/09/23 06:46:58;;;;;;;8.13;5.47;;;;;;;;;;5103598;28;20028;-66
2021/09/23 06:49:25;;;;;;;6.07;5.00;;;;;;;;;;5098642;28;20028;-66
2021/09/23 06:51:52;;;;;;;12.95;5.28;;;;;;;;;;5103489;28;20072;-66
2021/09/23 06:54:18;;;;;;;6.70;5.38;;;;;;;;;;5104197;28;20364;-66
2021/09/23 06:56:44;;;;;;;9.10;5.43;;;;;;;;;;5104677;28;20032;-66
2021/09/23 06:59:10;;;;;;;9.80;5.47;;;;;;;;;;5099544;28;20031;-66
2021/09/23 07:01:37;;;;;;;8.38;4.97;;;;;;;;;;5102534;28;20024;-66
2021/09/23 07:04:03;;;;;;;10.90;4.78;;;;;;;;;;5103947;28;20023;-66
2021/09/23 07:06:29;;;;;;;8.70;5.28;;;;;;;;;;5104411;28;20035;-66
2021/09/23 07:08:55;;;;;;;9.30;5.28;;;;;;;;;;5105157;28;20475;-69
2021/09/23 07:11:21;;;;;;;8.40;5.10;;;;;;;;;;5103303;28;20024;-67
2021/09/23 07:13:47;;;;;;;7.30;5.05;;;;;;;;;;5102906;28;20028;-66
2021/09/23 07:16:13;;;;;;;11.10;5.07;;;;;;;;;;5102724;28;20106;-65
2021/09/23 07:18:41;;;;;;;10.10;4.93;;;;;;;;;;5101587;28;20383;-66
2021/09/23 07:21:07;;;;;;;7.93;5.57;;;;;;;;;;5107540;28;20470;-67
2021/09/23 07:23:34;;;;;;;11.70;5.15;;;;;;;;;;5107653;28;20110;-66
2021/09/23 07:26:00;;;;;;;9.63;5.25;;;;;;;;;;5107632;28;20042;-67
2021/09/23 07:28:26;;;;;;;8.55;5.25;;;;;;;;;;5109576;28;20047;-67
2021/09/23 07:30:52;;;;;;;9.00;5.25;;;;;;;;;;5109747;28;20045;-67
2021/09/23 07:33:19;;;;;;;9.70;4.68;;;;;;;;;;5098776;28;20077;-67
2021/09/23 07:35:45;;;;;;;10.00;5.28;;;;;;;;;;5101506;28;20043;-67
2021/09/23 07:38:11;;;;;;;9.30;4.93;;;;;;;;;;5100399;28;20031;-67
2021/09/23 07:40:37;;;;;;;5.90;4.50;;;;;;;;;;5097370;28;20028;-67
2021/09/23 07:43:03;;;;;;;7.40;4.57;;;;;;;;;;5100820;28;20016;-67
2021/09/23 07:45:30;;;;;;;10.23;4.57;;;;;;;;;;5098039;28;20017;-66
2021/09/23 07:47:56;;;;;;;7.18;4.20;;;;;;;;;;5104819;28;20043;-67
2021/09/23 07:50:22;;;;;;;6.05;4.47;;;;;;;;;;5107373;28;20027;-67
2021/09/23 07:52:48;;;;;;;7.40;4.30;;;;;;;;;;5107544;28;20035;-67
2021/09/23 07:55:14;;;;;;;9.95;4.60;;;;;;;;;;5110267;28;20085;-67
2021/09/23 07:57:40;;;;;;;6.85;4.10;;;;;;;;;;5108458;28;20024;-67
2021/09/23 08:00:07;;;;;;;10.10;4.68;;;;;;;;;;5109161;28;20032;-66
2021/09/23 08:02:33;;;;;;;10.48;4.45;;;;;;;;;;5111253;28;20034;-66
2021/09/23 08:04:58;;;;;;;8.60;4.57;;;;;;;;;;5110986;28;20027;-67
2021/09/23 08:07:24;;;;;;;8.52;4.45;;;;;;;;;;5113349;28;20532;-67
2021/09/23 08:09:50;;;;;;;7.00;4.20;;;;;;;;;;5097956;28;20087;-67
2021/09/23 08:12:16;;;;;;;7.32;4.38;;;;;;;;;;5108882;28;20055;-67
2021/09/23 08:14:42;;;;;;;7.88;4.32;;;;;;;;;;5111333;28;20114;-66
2021/09/23 08:17:09;;;;;;;8.98;4.25;;;;;;;;;;5110783;28;20034;-67
2021/09/23 08:19:35;;;;;;;7.57;4.30;;;;;;;;;;5111845;28;20067;-67
2021/09/23 08:22:01;;;;;;;8.57;4.53;;;;;;;;;;5113600;28;20024;-67
2021/09/23 08:24:27;;;;;;;9.23;4.30;;;;;;;;;;5105251;28;20504;-67
2021/09/23 08:26:53;;;;;;;7.13;4.55;;;;;;;;;;5110827;28;20024;-67
2021/09/23 08:29:19;;;;;;;5.60;4.10;;;;;;;;;;5106810;28;20028;-67
2021/09/23 08:31:46;;;;;;;12.13;4.60;;;;;;;;;;5099175;28;20028;-67
2021/09/23 08:34:13;;;;;;;7.30;4.25;;;;;;;;;;5113324;28;20506;-67
2021/09/23 08:36:39;;;;;;;6.63;4.03;;;;;;;;;;5111654;28;20101;-67
2021/09/23 08:39:05;;;;;;;6.93;4.50;;;;;;;;;;5110588;28;20024;-67
2021/09/23 08:41:31;;;;;;;7.95;4.30;;;;;;;;;;5108695;28;20088;-67
2021/09/23 08:43:59;;;;;;;6.35;3.80;;;;;;;;;;5097247;28;20036;-67
2021/09/23 08:46:27;;;;;;;10.90;4.38;;;;;;;;;;5111563;27;20106;-67
2021/09/23 08:48:53;;;;;;;6.65;4.35;;;;;;;;;;5101699;28;20494;-67
2021/09/23 08:51:20;;;;;;;7.57;4.82;;;;;;;;;;5105083;28;20475;-67
2021/09/23 08:53:46;;;;;;;8.03;5.97;;;;;;;;;;5107151;28;20793;-67
2021/09/23 08:56:15;;;;;;;8.77;5.80;;;;;;;;;;5104395;28;20028;-67
2021/09/23 08:58:41;;;;;;;14.13;7.47;;;;;;;;;;5105571;28;20074;-67
2021/09/23 09:01:09;;;;;;;11.00;8.18;;;;;;;;;;5113183;28;20094;-67
2021/09/23 09:03:36;;;;;;;15.52;8.90;;;;;;;;;;5109475;28;20031;-67
2021/09/23 09:06:06;;;;;;;12.52;8.65;;;;;;;;;;5110320;28;20032;-67
2021/09/23 09:08:33;;;;;;;11.30;8.93;;;;;;;;;;5109246;28;20031;-67
2021/09/23 09:11:06;;;;;;;12.05;8.98;;;;;;;;;;5103830;28;20107;-67
2021/09/23 09:13:33;;;;;;;12.43;8.85;;;;;;;;;;5105004;28;20064;-67
2021/09/23 09:16:04;;;;;;;12.00;8.00;;;;;;;;;;5096356;28;20032;-67
2021/09/23 09:18:30;;;;;;;13.48;8.30;;;;;;;;;;5098440;28;20269;-66
2021/09/23 09:20:58;;;;;;;17.25;8.23;;;;;;;;;;5104051;28;20432;-67
2021/09/23 09:23:25;;;;;;;12.00;8.85;;;;;;;;;;5109654;28;20016;-67
2021/09/23 09:25:51;;;;;;;15.02;8.95;;;;;;;;;;5108960;28;20020;-67
2021/09/23 09:28:19;;;;;;;11.82;9.02;;;;;;;;;;5111565;28;20096;-67
2021/09/23 09:30:45;;;;;;;12.75;8.30;;;;;;;;;;5105666;28;20027;-67
2021/09/23 09:33:11;;;;;;;12.82;8.38;;;;;;;;;;5105628;28;20015;-67
2021/09/23 09:35:37;;;;;;;10.52;7.90;;;;;;;;;;5103287;28;20552;-67
2021/09/23 09:38:04;;;;;;;13.38;8.95;;;;;;;;;;5101941;28;20378;-66
2021/09/23 09:40:35;;;;;;;13.25;8.75;;;;;;;;;;5109856;28;20038;-67
2021/09/23 09:43:06;;;;;;;12.65;8.77;;;;;;;;;;5112320;28;20026;-67
2021/09/23 09:45:32;;;;;;;14.35;9.70;;;;;;;;;;5108926;28;20084;-67
2021/09/23 09:47:59;;;;;;;13.52;9.57;;;;;;;;;;5102117;28;20028;-67
2021/09/23 09:50:32;;;;;;;14.15;8.95;;;;;;;;;;5099939;28;20157;-67
2021/09/23 09:53:01;;;;;;;15.00;9.02;;;;;;;;;;5109058;28;20050;-67
2021/09/23 09:55:35;;;;;;;15.32;9.93;;;;;;;;;;5109891;28;20031;-64
2021/09/23 09:58:01;;;;;;;12.95;9.30;;;;;;;;;;5111698;28;20074;-66
2021/09/23 10:00:29;;;;;;;13.82;9.90;;;;;;;;;;5110037;28;20479;-67
2021/09/23 10:02:55;;;;;;;13.13;10.23;;;;;;;;;;5109053;28;20038;-66
2021/09/23 10:05:22;;;;;;;16.02;10.95;;;;;;;;;;5105164;28;20020;-65
2021/09/23 10:07:49;;;;;;;15.43;8.90;;;;;;;;;;5104849;28;20027;-65
2021/09/23 10:10:16;;;;;;;11.93;9.07;;;;;;;;;;5100411;28;20049;-65
2021/09/23 10:12:43;;;;;;;14.90;10.00;;;;;;;;;;5102335;28;20031;-65
2021/09/23 10:15:10;;;;;;;12.57;9.32;;;;;;;;;;5106590;28;20055;-65
2021/09/23 10:17:36;;;;;;;12.82;9.15;;;;;;;;;;5104459;28;20437;-65
2021/09/23 10:20:05;;;;;;;12.18;9.30;;;;;;;;;;5102469;28;20031;-65
2021/09/23 10:22:31;;;;;;;13.82;9.30;;;;;;;;;;5100639;28;20027;-66
2021/09/23 10:24:58;;;;;;;12.25;8.27;;;;;;;;;;5101131;28;20092;-66
2021/09/23 10:30:10;;;;;;;13.77;7.95;;;;;;;;;;5102950;28;20042;-66
2021/09/23 10:32:36;;;;;;;14.98;9.32;;;;;;;;;;5093382;28;20062;-63
2021/09/23 10:35:03;;;;;;;13.30;8.43;;;;;;;;;;5091636;28;20098;-63
2021/09/23 10:37:30;;;;;;;13.40;7.88;;;;;;;;;;5101470;28;20035;-63
2021/09/23 10:39:57;;;;;;;14.18;8.77;;;;;;;;;;5101570;28;20035;-63
2021/09/23 10:42:23;;;;;;;12.23;8.63;;;;;;;;;;5099386;28;20028;-63
2021/09/23 10:44:51;;;;;;;13.15;8.57;;;;;;;;;;5098935;28;20165;-64
2021/09/23 10:47:24;;;;;;;14.05;8.43;;;;;;;;;;5090822;28;20399;-63
2021/09/23 10:49:51;;;;;;;16.10;8.40;;;;;;;;;;5098341;28;20076;-62
2021/09/23 10:52:17;;;;;;;10.80;7.55;;;;;;;;;;5101871;28;20124;-62
2021/09/23 10:54:43;;;;;;;11.20;8.73;;;;;;;;;;5099873;28;20036;-62
2021/09/23 10:57:10;;;;;;;10.95;8.13;;;;;;;;;;5102376;28;20039;-63
2021/09/23 10:59:38;;;;;;;13.90;9.10;;;;;;;;;;5088239;28;20487;-63
2021/09/23 11:02:23;;;;;;;12.02;7.93;;;;;;;;;;5096390;28;20040;-63
2021/09/23 11:04:53;;;;;;;9.40;7.28;;;;;;;;;;5093480;28;20056;-64
2021/09/23 11:07:19;;;;;;;11.35;7.72;;;;;;;;;;5110459;28;20031;-64
2021/09/23 11:10:05;;;;;;;14.23;8.77;;;;;;;;;;5109502;28;20122;-64
2021/09/23 11:12:32;;;;;;;12.98;8.32;;;;;;;;;;5107586;28;20623;-63
2021/09/23 11:14:58;;;;;;;11.95;7.65;;;;;;;;;;5108123;28;20395;-63
2021/09/23 11:17:25;;;;;;;11.60;7.65;;;;;;;;;;5106265;28;20024;-64
2021/09/23 11:20:20;;;;;;;10.85;7.00;;;;;;;;;;5092389;28;20115;-63
2021/09/23 11:22:48;;;;;;;12.13;7.22;;;;;;;;;;5089156;28;20487;-64
2021/09/23 11:25:15;;;;;;;10.57;7.32;;;;;;;;;;5108697;28;20189;-63
2021/09/23 11:27:42;;;;;;;11.77;7.10;;;;;;;;;;5108750;28;20043;-63
2021/09/23 11:30:10;;;;;;;9.65;6.00;;;;;;;;;;5107298;28;20500;-63
2021/09/23 11:32:36;;;;;;;;;;;;;;;;;;5107628;28;20027;-62
2021/09/23 11:35:05;;;;;;;12.48;8.25;;;;;;;;;;5110579;28;19923;-62
2021/09/23 11:37:32;;;;;;;10.32;7.05;;;;;;;;;;5112450;28;20031;-63
2021/09/23 11:39:59;;;;;;;10.38;6.93;;;;;;;;;;5114462;28;20031;-63
2021/09/23 11:42:29;;;;;;;10.18;6.05;;;;;;;;;;5111743;28;20497;-62
2021/09/23 11:45:04;;;;;;;9.88;5.95;;;;;;;;;;5111560;28;20423;-63
2021/09/23 11:47:30;;;;;;;9.77;7.10;;;;;;;;;;5109101;28;20102;-62
2021/09/23 11:49:56;;;;;;;11.20;7.13;;;;;;;;;;5096545;28;20480;-62
2021/09/23 11:52:32;;;;;;;8.07;5.75;;;;;;;;;;5114235;28;20042;-62
2021/09/23 11:55:00;;;;;;;9.67;6.10;;;;;;;;;;5113927;28;20039;-62
2021/09/23 11:57:27;;;;;;;10.43;6.68;;;;;;;;;;5110734;28;20019;-62
2021/09/23 11:59:54;;;;;;;10.00;6.15;;;;;;;;;;5107109;28;20111;-62
2021/09/23 12:02:20;;;;;;;8.53;5.97;;;;;;;;;;5111643;28;20024;-62
2021/09/23 12:04:52;;;;;;;10.63;6.20;;;;;;;;;;5110817;28;20024;-62
2021/09/23 12:07:18;;;;;;;8.98;6.43;;;;;;;;;;5113785;28;20016;-62
2021/09/23 12:10:01;;;;;;;9.73;5.95;;;;;;;;;;5112599;28;20020;-62
2021/09/23 12:12:27;;;;;;;8.85;5.25;;;;;;;;;;5110617;28;20027;-62
2021/09/23 12:14:54;;;;;;;8.98;5.82;;;;;;;;;;5110988;28;20472;-62
2021/09/23 12:17:20;;;;;;;10.48;6.20;;;;;;;;;;5110040;28;20019;-62
2021/09/23 12:19:55;;;;;;;8.63;5.53;;;;;;;;;;5095333;28;20085;-62
2021/09/23 12:22:29;;;;;;;10.68;5.43;;;;;;;;;;5113324;28;20027;-62
2021/09/23 12:24:55;;;;;;;10.02;6.05;;;;;;;;;;5112844;28;20028;-62
2021/09/23 12:27:21;;;;;;;9.23;5.90;;;;;;;;;;5104911;28;20071;-62
2021/09/23 12:29:52;;;;;;;7.53;5.50;;;;;;;;;;5104902;28;20028;-62
2021/09/23 12:32:18;;;;;;;7.57;5.40;;;;;;;;;;5104577;28;20362;-62
2021/09/23 12:34:47;;;;;;;7.72;4.78;;;;;;;;;;5110156;28;20440;-62
2021/09/23 12:37:13;;;;;;;9.52;5.80;;;;;;;;;;5113783;28;20367;-62
2021/09/23 12:39:42;;;;;;;8.27;5.60;;;;;;;;;;5111419;28;20031;-62
2021/09/23 12:42:11;;;;;;;7.97;4.70;;;;;;;;;;5110599;28;20011;-62
2021/09/23 12:44:38;;;;;;;7.63;4.95;;;;;;;;;;5110327;28;20039;-62
2021/09/23 12:47:04;;;;;;;;;;;;;;;;;;5110320;28;20027;-62
2021/09/23 12:49:31;;;;;;;7.75;5.38;;;;;;;;;;5111727;28;20002;-62
2021/09/23 12:52:09;;;;;;;8.15;5.70;;;;;;;;;;5112735;28;20487;-62
2021/09/23 12:54:35;;;;;;;7.10;5.03;;;;;;;;;;5110319;28;20035;-62
2021/09/23 12:57:06;;;;;;;7.05;4.57;;;;;;;;;;5110393;28;20622;-62
2021/09/23 12:59:32;;;;;;;6.85;4.78;;;;;;;;;;5109929;28;20543;-62
2021/09/23 13:02:08;;;;;;;8.55;5.28;;;;;;;;;;5109795;28;20020;-62
2021/09/23 13:04:35;;;;;;;11.55;5.80;;;;;;;;;;5110895;28;20160;-63
2021/09/23 13:07:15;;;;;;;7.25;4.93;;;;;;;;;;5103708;28;20032;-62
2021/09/23 13:09:41;;;;;;;8.82;4.85;;;;;;;;;;5104718;28;20110;-62
2021/09/23 13:12:13;;;;;;;9.32;4.78;;;;;;;;;;5103375;28;20120;-62
2021/09/23 13:14:45;;;;;;;6.38;4.43;;;;;;;;;;5101803;28;20031;-62
2021/09/23 13:17:27;;;;;;;10.80;4.70;;;;;;;;;;5099420;28;20069;-62
2021/09/23 13:19:53;;;;;;;6.65;4.50;;;;;;;;;;5102335;28;20039;-62
2021/09/23 13:22:19;;;;;;;8.82;4.50;;;;;;;;;;5103877;28;20020;-62
2021/09/23 13:24:45;;;;;;;8.10;4.60;;;;;;;;;;5102688;28;20395;-62
2021/09/23 13:27:11;;;;;;;6.82;4.40;;;;;;;;;;5104345;28;20088;-63
2021/09/23 13:29:37;;;;;;;7.22;4.07;;;;;;;;;;5102852;28;20042;-62
2021/09/23 13:32:03;;;;;;;6.57;4.05;;;;;;;;;;5096435;28;20020;-62
2021/09/23 13:34:29;;;;;;;6.45;4.25;;;;;;;;;;5111128;28;20384;-62
2021/09/23 13:36:55;;;;;;;6.97;4.88;;;;;;;;;;5111454;28;20027;-62
2021/09/23 13:39:21;;;;;;;6.43;4.60;;;;;;;;;;5103419;28;20110;-62
2021/09/23 13:41:47;;;;;;;7.07;4.50;;;;;;;;;;5109199;28;20176;-62
2021/09/23 13:44:13;;;;;;;8.60;5.25;;;;;;;;;;5109237;28;20356;-62
2021/09/23 13:46:39;;;;;;;7.50;5.28;;;;;;;;;;5109144;28;20031;-62
2021/09/23 13:49:05;;;;;;;6.90;4.80;;;;;;;;;;5096948;28;20386;-62
2021/09/23 13:51:31;;;;;;;6.20;4.40;;;;;;;;;;5108442;28;20034;-62
2021/09/23 13:53:57;;;;;;;6.90;4.25;;;;;;;;;;5108071;28;20034;-62
2021/09/23 13:56:23;;;;;;;6.00;4.30;;;;;;;;;;5108454;28;20031;-62
2021/09/23 13:58:49;;;;;;;4.95;4.38;;;;;;;;;;5106809;28;20426;-62
2021/09/23 14:01:15;;;;;;;8.90;4.00;;;;;;;;;;5110085;28;20421;-62
2021/09/23 14:03:41;;;;;;;9.00;4.65;;;;;;;;;;5110986;28;20023;-62
2021/09/23 14:06:07;;;;;;;5.35;3.95;;;;;;;;;;5108675;28;20024;-62
2021/09/23 14:08:33;;;;;;;5.55;4.32;;;;;;;;;;5108996;28;20027;-62
2021/09/23 14:10:59;;;;;;;6.25;4.03;;;;;;;;;;5108465;28;20043;-62
2021/09/23 14:13:26;;;;;;;6.03;4.13;;;;;;;;;;5109623;28;20042;-62
2021/09/23 14:15:52;;;;;;;6.15;3.97;;;;;;;;;;5109418;28;20146;-62
2021/09/23 14:18:18;;;;;;;7.90;4.05;;;;;;;;;;5099102;28;20364;-62
2021/09/23 14:20:44;;;;;;;6.63;4.47;;;;;;;;;;5100953;28;20400;-63
2021/09/23 14:23:11;;;;;;;5.28;4.07;;;;;;;;;;5108275;28;20499;-62
2021/09/23 14:25:37;;;;;;;7.20;4.20;;;;;;;;;;5107811;28;20035;-62
2021/09/23 14:28:05;;;;;;;8.00;3.90;;;;;;;;;;5110991;28;20043;-62
2021/09/23 14:30:31;;;;;;;8.57;4.57;;;;;;;;;;5108857;28;20024;-62
2021/09/23 14:32:57;;;;;;;7.95;4.25;;;;;;;;;;5108317;28;20046;-62
2021/09/23 14:35:23;;;;;;;5.10;3.85;;;;;;;;;;5108433;28;20483;-62
2021/09/23 14:37:48;;;;;;;5.55;4.07;;;;;;;;;;5107737;28;20020;-62
2021/09/23 14:40:14;;;;;;;7.35;4.45;;;;;;;;;;5107821;28;20452;-62
2021/09/23 14:42:40;;;;;;;6.88;4.70;;;;;;;;;;5094782;28;20030;-62